createdAt,value
2022-08-08T00:02:03.697Z,90.40
2022-08-08T00:04:57.108Z,90.80
2022-08-08T00:07:43.623Z,90.90
2022-08-08T00:10:34.818Z,90.60
2022-08-08T00:13:20.897Z,90.70
2022-08-08T00:16:13.198Z,90.80
2022-08-08T00:19:00.652Z,90.90
2022-08-08T00:21:39.326Z,91.30
2022-08-08T00:24:18.611Z,91.30
2022-08-08T00:27:02.979Z,91.30
2022-08-08T00:30:11.215Z,91.20
2022-08-08T00:32:56.220Z,90.80
2022-08-08T00:35:43.517Z,90.60
2022-08-08T00:38:54.417Z,90.50
2022-08-08T00:42:07.706Z,90.80
2022-08-08T00:44:57.007Z,90.90
2022-08-08T00:48:05.522Z,90.90
2022-08-08T00:51:21.741Z,90.50
2022-08-08T00:54:25.166Z,90.60
2022-08-08T00:57:40.668Z,90.60
2022-08-08T01:00:10.809Z,90.60
2022-08-08T01:04:02.594Z,91.20
2022-08-08T01:06:37.336Z,91.90
2022-08-08T01:09:40.928Z,93.10
2022-08-08T01:12:47.186Z,94.00
2022-08-08T01:15:55.175Z,95.30
2022-08-08T01:19:11.675Z,95.40
2022-08-08T01:22:13.505Z,96.00
2022-08-08T01:25:26.293Z,96.80
2022-08-08T01:28:52.036Z,97.40
2022-08-08T01:32:12.990Z,97.30
2022-08-08T01:35:11.362Z,97.30
2022-08-08T01:38:06.997Z,97.50
2022-08-08T01:40:50.267Z,97.90
2022-08-08T01:43:39.191Z,98.30
2022-08-08T01:46:39.932Z,98.90
2022-08-08T01:49:47.490Z,99.40
2022-08-08T01:53:05.122Z,99.60
2022-08-08T01:56:29.645Z,99.80
2022-08-08T01:59:24.297Z,99.90
2022-08-08T02:02:39.878Z,99.90
2022-08-08T02:05:33.597Z,99.90
2022-08-08T02:08:22.517Z,99.90
2022-08-08T02:11:59.208Z,99.90
2022-08-08T02:15:11.152Z,99.90
2022-08-08T02:18:04.577Z,99.90
2022-08-08T02:21:20.282Z,99.90
2022-08-08T02:24:49.372Z,99.90
2022-08-08T02:27:38.908Z,99.90
2022-08-08T02:30:25.541Z,99.90
2022-08-08T02:34:08.701Z,99.90
2022-08-08T02:36:37.412Z,99.90
2022-08-08T02:39:42.773Z,99.90
2022-08-08T02:44:34.874Z,99.90
2022-08-08T02:46:33.135Z,99.90
2022-08-08T02:49:50.676Z,99.90
2022-08-08T02:52:58.505Z,99.90
2022-08-08T02:56:03.698Z,99.90
2022-08-08T02:59:26.243Z,99.90
2022-08-08T03:02:29.974Z,99.90
2022-08-08T03:05:46.463Z,99.90
2022-08-08T03:08:56.957Z,99.90
2022-08-08T03:12:17.556Z,99.90
2022-08-08T03:16:00.904Z,99.90
2022-08-08T03:18:31.327Z,99.90
2022-08-08T03:20:58.673Z,99.90
2022-08-08T03:23:56.528Z,99.90
2022-08-08T03:26:31.092Z,99.90
2022-08-08T03:29:04.499Z,99.90
2022-08-08T03:32:06.286Z,99.90
2022-08-08T03:34:35.297Z,99.90
2022-08-08T03:37:59.629Z,99.90
2022-08-08T03:40:02.372Z,99.90
2022-08-08T03:42:32.159Z,99.90
2022-08-08T03:44:59.417Z,99.90
2022-08-08T03:47:27.838Z,99.90
2022-08-08T03:50:20.347Z,99.90
2022-08-08T03:52:53.418Z,99.90
2022-08-08T03:55:57.951Z,99.90
2022-08-08T03:58:35.547Z,99.90
2022-08-08T04:01:24.402Z,99.90
2022-08-08T04:03:59.725Z,99.90
2022-08-08T04:06:29.913Z,99.90
2022-08-08T04:09:08.815Z,99.90
2022-08-08T04:11:58.601Z,99.90
2022-08-08T04:14:33.421Z,99.90
2022-08-08T04:17:02.415Z,99.90
2022-08-08T04:19:36.800Z,99.90
2022-08-08T04:22:04.677Z,99.90
2022-08-08T04:24:31.818Z,99.90
2022-08-08T04:27:01.990Z,99.90
2022-08-08T04:29:36.693Z,99.90
2022-08-08T04:32:08.224Z,99.90
2022-08-08T04:34:42.852Z,99.90
2022-08-08T04:37:12.021Z,99.90
2022-08-08T04:40:04.097Z,99.90
2022-08-08T04:42:30.539Z,99.90
2022-08-08T04:45:00.866Z,99.90
2022-08-08T04:47:28.006Z,99.90
2022-08-08T04:50:00.449Z,99.90
2022-08-08T04:52:33.688Z,99.90
2022-08-08T04:55:04.450Z,99.90
2022-08-08T04:57:34.476Z,99.90
2022-08-08T05:00:04.604Z,99.90
2022-08-08T05:02:31.987Z,99.90
2022-08-08T05:05:00.181Z,99.90
2022-08-08T05:07:38.183Z,99.90
2022-08-08T05:10:12.343Z,99.90
2022-08-08T05:12:53.498Z,99.90
2022-08-08T05:16:49.380Z,99.90
2022-08-08T05:18:15.623Z,99.90
2022-08-08T05:20:50.337Z,99.90
2022-08-08T05:23:19.788Z,99.90
2022-08-08T05:25:49.533Z,99.90
2022-08-08T05:28:48.455Z,99.90
2022-08-08T05:31:19.473Z,99.90
2022-08-08T05:33:51.353Z,99.90
2022-08-08T05:36:25.642Z,99.90
2022-08-08T05:38:58.556Z,99.90
2022-08-08T05:41:26.144Z,99.90
2022-08-08T05:44:12.465Z,99.90
2022-08-08T05:46:42.044Z,99.80
2022-08-08T05:49:16.588Z,99.00
2022-08-08T05:51:47.993Z,98.60
2022-08-08T05:54:28.104Z,98.50
2022-08-08T05:57:11.880Z,98.60
2022-08-08T06:00:00.642Z,98.20
2022-08-08T06:02:56.893Z,97.90
2022-08-08T06:05:35.577Z,98.00
2022-08-08T06:08:10.427Z,98.00
2022-08-08T06:10:54.295Z,97.80
2022-08-08T06:13:23.280Z,97.10
2022-08-08T06:15:54.955Z,97.00
2022-08-08T06:18:27.646Z,97.10
2022-08-08T06:20:58.175Z,96.90
2022-08-08T06:23:52.825Z,96.90
2022-08-08T06:26:43.058Z,96.80
2022-08-08T06:29:26.030Z,96.00
2022-08-08T06:32:11.252Z,96.10
2022-08-08T06:34:56.138Z,96.00
2022-08-08T06:37:39.362Z,96.00
2022-08-08T06:40:14.275Z,96.00
2022-08-08T06:42:56.323Z,95.40
2022-08-08T06:45:24.201Z,94.90
2022-08-08T06:48:00.981Z,95.10
2022-08-08T06:50:38.650Z,94.60
2022-08-08T06:53:17.466Z,94.20
2022-08-08T06:56:02.006Z,94.30
2022-08-08T06:58:33.023Z,94.00
2022-08-08T07:01:24.443Z,94.50
2022-08-08T07:04:40.210Z,94.60
2022-08-08T07:06:56.551Z,94.40
2022-08-08T07:09:45.548Z,94.70
2022-08-08T07:12:47.791Z,94.50
2022-08-08T07:15:32.614Z,94.90
2022-08-08T07:18:35.409Z,94.40
2022-08-08T07:21:19.202Z,95.00
2022-08-08T07:24:09.482Z,94.30
2022-08-08T07:26:40.483Z,94.20
2022-08-08T07:29:08.201Z,92.90
2022-08-08T07:31:48.231Z,93.10
2022-08-08T07:34:20.404Z,92.50
2022-08-08T07:36:57.046Z,92.30
2022-08-08T07:39:29.498Z,93.10
2022-08-08T07:42:04.900Z,93.10
2022-08-08T07:44:37.049Z,93.90
2022-08-08T07:47:07.773Z,93.50
2022-08-08T07:49:35.034Z,93.20
2022-08-08T07:52:13.385Z,93.50
2022-08-08T07:55:07.650Z,93.90
2022-08-08T07:58:09.114Z,94.20
2022-08-08T08:00:48.698Z,93.50
2022-08-08T08:03:31.092Z,93.30
2022-08-08T08:06:11.833Z,92.80
2022-08-08T08:08:56.291Z,93.90
2022-08-08T08:11:38.402Z,93.60
2022-08-08T08:14:17.462Z,93.20
2022-08-08T08:16:48.595Z,92.10
2022-08-08T08:19:18.101Z,93.10
2022-08-08T08:21:57.055Z,93.30
2022-08-08T08:24:30.794Z,93.10
2022-08-08T08:27:02.886Z,92.50
2022-08-08T08:29:31.117Z,92.60
2022-08-08T08:31:59.304Z,92.70
2022-08-08T08:34:32.624Z,92.50
2022-08-08T08:37:03.358Z,91.80
2022-08-08T08:39:59.900Z,92.40
2022-08-08T08:42:31.719Z,91.80
2022-08-08T08:45:21.664Z,91.80
2022-08-08T08:47:58.234Z,92.50
2022-08-08T08:50:33.940Z,91.80
2022-08-08T08:53:54.186Z,92.30
2022-08-08T08:56:02.522Z,92.00
2022-08-08T08:58:49.882Z,91.10
2022-08-08T09:01:21.306Z,91.40
2022-08-08T09:03:51.732Z,90.30
2022-08-08T09:06:28.551Z,90.00
2022-08-08T09:09:26.230Z,90.20
2022-08-08T09:12:07.521Z,90.70
2022-08-08T09:14:35.673Z,91.60
2022-08-08T09:17:17.420Z,91.70
2022-08-08T09:21:56.515Z,91.00
2022-08-08T09:22:39.413Z,91.00
2022-08-08T09:25:09.759Z,91.30
2022-08-08T09:27:42.017Z,90.90
2022-08-08T09:30:26.982Z,90.50
2022-08-08T09:33:12.834Z,90.00
2022-08-08T09:35:48.869Z,89.70
2022-08-08T09:38:51.984Z,90.00
2022-08-08T09:42:13.882Z,88.10
2022-08-08T09:44:39.677Z,90.00
2022-08-08T09:47:27.631Z,89.10
2022-08-08T09:50:10.062Z,88.30
2022-08-08T09:52:56.755Z,90.10
2022-08-08T09:55:51.424Z,86.20
2022-08-08T09:58:26.019Z,85.90
2022-08-08T10:01:58.032Z,86.70
2022-08-08T10:04:02.330Z,86.70
2022-08-08T10:06:32.316Z,86.30
2022-08-08T10:09:00.266Z,87.20
2022-08-08T10:12:26.715Z,85.50
2022-08-08T10:14:34.972Z,86.10
2022-08-08T10:17:56.526Z,84.50
2022-08-08T10:20:01.311Z,83.40
2022-08-08T10:22:33.867Z,83.80
2022-08-08T10:25:07.174Z,83.10
2022-08-08T10:27:44.143Z,82.90
2022-08-08T10:30:16.394Z,83.90
2022-08-08T10:33:00.904Z,82.30
2022-08-08T10:36:21.049Z,79.80
2022-08-08T10:38:20.306Z,77.50
2022-08-08T10:40:53.368Z,77.60
2022-08-08T10:43:22.917Z,77.50
2022-08-08T10:45:56.137Z,78.60
2022-08-08T10:48:58.834Z,81.30
2022-08-08T10:51:47.033Z,79.90
2022-08-08T10:54:25.037Z,81.20
2022-08-08T10:57:08.901Z,79.60
2022-08-08T10:59:39.942Z,77.90
2022-08-08T11:02:09.326Z,75.40
2022-08-08T11:04:53.340Z,76.40
2022-08-08T11:08:31.566Z,77.60
2022-08-08T11:10:28.959Z,74.60
2022-08-08T11:13:28.693Z,74.80
2022-08-08T11:15:52.453Z,74.10
2022-08-08T11:18:30.298Z,73.50
2022-08-08T11:21:10.051Z,69.90
2022-08-08T11:23:42.594Z,66.40
2022-08-08T11:26:19.265Z,64.60
2022-08-08T11:28:47.848Z,65.50
2022-08-08T11:31:20.852Z,66.70
2022-08-08T11:34:03.120Z,66.20
2022-08-08T11:36:36.301Z,64.40
2022-08-08T11:39:12.636Z,67.90
2022-08-08T11:41:45.291Z,66.10
2022-08-08T11:44:15.077Z,64.90
2022-08-08T11:46:42.752Z,65.90
2022-08-08T11:49:14.087Z,66.10
2022-08-08T11:51:50.292Z,66.50
2022-08-08T11:54:34.422Z,65.50
2022-08-08T11:57:14.673Z,64.50
2022-08-08T12:00:02.655Z,63.30
2022-08-08T12:02:47.087Z,63.00
2022-08-08T12:05:14.497Z,65.00
2022-08-08T12:07:51.005Z,62.90
2022-08-08T12:10:26.252Z,63.40
2022-08-08T12:13:14.142Z,62.90
2022-08-08T12:15:49.081Z,63.00
2022-08-08T12:18:26.655Z,63.90
2022-08-08T12:20:56.435Z,62.50
2022-08-08T12:23:43.129Z,64.00
2022-08-08T12:26:45.922Z,62.30
2022-08-08T12:29:40.640Z,64.60
2022-08-08T12:32:22.361Z,67.80
2022-08-08T12:35:17.425Z,65.90
2022-08-08T12:38:02.418Z,67.20
2022-08-08T12:40:54.162Z,65.40
2022-08-08T12:43:47.911Z,66.10
2022-08-08T12:46:25.122Z,65.40
2022-08-08T12:49:20.766Z,66.40
2022-08-08T12:51:59.319Z,64.00
2022-08-08T12:54:33.438Z,63.20
2022-08-08T12:57:24.436Z,63.00
2022-08-08T13:00:04.729Z,63.00
2022-08-08T13:02:52.575Z,63.10
2022-08-08T13:05:27.117Z,62.80
2022-08-08T13:08:21.926Z,63.10
2022-08-08T13:10:58.139Z,64.50
2022-08-08T13:13:37.524Z,63.20
2022-08-08T13:16:25.551Z,63.10
2022-08-08T13:19:06.617Z,62.30
2022-08-08T13:21:53.159Z,62.30
2022-08-08T13:24:42.201Z,62.30
2022-08-08T13:27:19.995Z,59.30
2022-08-08T13:30:00.643Z,59.30
2022-08-08T13:32:30.564Z,59.90
2022-08-08T13:34:59.824Z,59.70
2022-08-08T13:38:05.570Z,59.90
2022-08-08T13:40:17.912Z,61.00
2022-08-08T13:42:54.843Z,61.40
2022-08-08T13:45:23.983Z,63.20
2022-08-08T13:48:03.028Z,64.70
2022-08-08T13:50:44.085Z,62.80
2022-08-08T13:53:36.238Z,64.80
2022-08-08T13:56:11.602Z,65.40
2022-08-08T13:58:57.646Z,64.30
2022-08-08T14:01:41.857Z,65.60
2022-08-08T14:04:24.277Z,65.00
2022-08-08T14:06:59.819Z,65.80
2022-08-08T14:10:02.405Z,64.90
2022-08-08T14:12:30.730Z,65.80
2022-08-08T14:14:59.850Z,65.80
2022-08-08T14:17:57.963Z,67.00
2022-08-08T14:20:15.735Z,68.40
2022-08-08T14:23:21.184Z,67.30
2022-08-08T14:26:11.199Z,67.10
2022-08-08T14:28:39.842Z,67.10
2022-08-08T14:31:10.291Z,66.80
2022-08-08T14:33:39.073Z,67.20
2022-08-08T14:36:11.562Z,68.30
2022-08-08T14:38:52.689Z,67.90
2022-08-08T14:41:53.343Z,67.10
2022-08-08T14:44:19.609Z,72.60
2022-08-08T14:47:01.233Z,75.10
2022-08-08T14:49:51.550Z,77.70
2022-08-08T14:52:21.867Z,80.40
2022-08-08T14:54:50.076Z,83.40
2022-08-08T14:57:17.321Z,85.10
2022-08-08T14:59:50.907Z,86.00
2022-08-08T15:02:25.649Z,86.90
2022-08-08T15:05:08.331Z,89.20
2022-08-08T15:07:40.527Z,90.40
2022-08-08T15:10:11.587Z,90.50
2022-08-08T15:12:41.326Z,91.00
2022-08-08T15:15:10.137Z,90.80
2022-08-08T15:17:39.575Z,90.90
2022-08-08T15:20:14.045Z,92.10
2022-08-08T15:22:44.562Z,92.90
2022-08-08T15:25:17.337Z,93.80
2022-08-08T15:28:03.426Z,94.80
2022-08-08T15:30:32.395Z,96.50
2022-08-08T15:32:59.660Z,98.10
2022-08-08T15:35:27.378Z,98.80
2022-08-08T15:37:56.850Z,99.40
2022-08-08T15:40:28.333Z,99.50
2022-08-08T15:42:57.823Z,99.80
2022-08-08T15:45:29.942Z,99.90
2022-08-08T15:48:15.485Z,99.90
2022-08-08T15:51:01.267Z,99.90
2022-08-08T15:53:40.584Z,99.90
2022-08-08T15:56:16.647Z,99.90
2022-08-08T15:58:48.542Z,99.90
2022-08-08T16:01:16.682Z,99.90
2022-08-08T16:03:48.007Z,99.90
2022-08-08T16:06:28.244Z,99.90
2022-08-08T16:13:03.063Z,99.90
2022-08-08T16:13:05.741Z,99.90
2022-08-08T16:14:35.944Z,99.90
2022-08-08T16:17:05.794Z,99.90
2022-08-08T16:19:59.588Z,99.90
2022-08-08T16:22:29.010Z,99.90
2022-08-08T16:24:58.379Z,99.90
2022-08-08T16:27:25.563Z,99.90
2022-08-08T16:30:08.139Z,99.90
2022-08-08T16:32:36.319Z,99.90
2022-08-08T16:35:03.842Z,99.90
2022-08-08T16:37:31.321Z,99.90
2022-08-08T16:40:02.225Z,99.90
2022-08-08T16:42:30.461Z,99.90
2022-08-08T16:44:59.053Z,99.90
2022-08-08T16:47:41.445Z,99.90
2022-08-08T16:50:13.977Z,99.90
2022-08-08T16:55:06.391Z,99.90
2022-08-08T16:55:55.628Z,99.90
2022-08-08T16:58:25.692Z,99.90
2022-08-08T17:00:54.601Z,99.60
2022-08-08T17:03:24.731Z,98.70
2022-08-08T17:05:53.821Z,97.10
2022-08-08T17:08:23.731Z,96.90
2022-08-08T17:10:57.787Z,96.10
2022-08-08T17:13:27.593Z,96.60
2022-08-08T17:16:15.079Z,96.50
2022-08-08T17:18:42.731Z,96.30
2022-08-08T17:21:12.648Z,95.90
2022-08-08T17:24:00.774Z,95.80
2022-08-08T17:26:29.418Z,95.60
2022-08-08T17:28:58.583Z,95.70
2022-08-08T17:31:45.419Z,96.00
2022-08-08T17:34:49.669Z,96.40
2022-08-08T17:37:06.792Z,96.50
2022-08-08T17:40:05.106Z,97.00
2022-08-08T17:42:25.343Z,98.90
2022-08-08T17:44:53.010Z,99.50
2022-08-08T17:47:23.662Z,99.80
2022-08-08T17:49:53.005Z,99.90
2022-08-08T17:52:28.173Z,99.90
2022-08-08T17:54:56.429Z,99.90
2022-08-08T17:57:28.995Z,99.90
2022-08-08T18:00:10.318Z,99.90
2022-08-08T18:03:04.884Z,99.90
2022-08-08T18:05:48.341Z,99.90
2022-08-08T18:08:24.888Z,99.90
2022-08-08T18:11:17.183Z,99.90
2022-08-08T18:13:48.128Z,99.90
2022-08-08T18:16:17.031Z,99.90
2022-08-08T18:18:56.259Z,99.90
2022-08-08T18:22:00.198Z,99.90
2022-08-08T18:24:21.535Z,99.90
2022-08-08T18:26:53.856Z,99.90
2022-08-08T18:29:34.671Z,99.90
2022-08-08T18:32:08.572Z,99.90
2022-08-08T18:34:37.847Z,99.90
2022-08-08T18:37:08.444Z,99.90
2022-08-08T18:39:41.319Z,99.90
2022-08-08T18:42:16.103Z,99.90
2022-08-08T18:44:54.915Z,99.90
2022-08-08T18:47:28.079Z,99.90
2022-08-08T18:50:00.223Z,99.90
2022-08-08T18:52:30.317Z,99.90
2022-08-08T18:54:59.781Z,99.90
2022-08-08T18:57:42.060Z,99.90
2022-08-08T19:00:20.357Z,99.90
2022-08-08T19:02:56.690Z,99.90
2022-08-08T19:05:37.323Z,99.90
2022-08-08T19:08:25.062Z,99.90
2022-08-08T19:10:59.864Z,99.90
2022-08-08T19:13:38.553Z,99.90
2022-08-08T19:16:20.173Z,99.90
2022-08-08T19:18:56.012Z,99.90
2022-08-08T19:21:32.878Z,99.90
2022-08-08T19:24:05.645Z,99.90
2022-08-08T19:26:37.797Z,99.90
2022-08-08T19:29:06.575Z,99.90
2022-08-08T19:31:35.920Z,99.90
2022-08-08T19:34:29.669Z,99.90
2022-08-08T19:36:59.278Z,99.90
2022-08-08T19:39:35.405Z,99.90
2022-08-08T19:42:05.259Z,99.90
2022-08-08T19:44:43.348Z,99.90
2022-08-08T19:47:15.654Z,99.90
2022-08-08T19:49:59.307Z,99.90
2022-08-08T19:52:34.731Z,99.90
2022-08-08T19:55:09.295Z,99.90
2022-08-08T19:57:38.135Z,99.90
2022-08-08T20:00:11.604Z,99.90
2022-08-08T20:02:56.746Z,99.90
2022-08-08T20:06:12.924Z,99.90
2022-08-08T20:08:29.150Z,99.90
2022-08-08T20:11:00.744Z,99.90
2022-08-08T20:14:32.141Z,99.90
2022-08-08T20:16:15.856Z,99.90
2022-08-08T20:18:52.222Z,99.90
2022-08-08T20:21:23.319Z,99.90
2022-08-08T20:23:57.753Z,99.90
2022-08-08T20:26:30.312Z,99.90
2022-08-08T20:29:03.871Z,99.90
2022-08-08T20:32:06.789Z,99.90
2022-08-08T20:34:29.621Z,99.90
2022-08-08T20:37:00.531Z,99.90
2022-08-08T20:39:33.826Z,99.90
2022-08-08T20:42:09.270Z,99.90
2022-08-08T20:44:37.783Z,99.90
2022-08-08T20:47:05.406Z,99.90
2022-08-08T20:49:46.865Z,99.90
2022-08-08T20:52:15.501Z,99.90
2022-08-08T20:54:44.210Z,99.90
2022-08-08T20:57:19.192Z,99.90
2022-08-08T20:59:48.723Z,99.90
2022-08-08T21:02:25.922Z,99.90
2022-08-08T21:05:00.538Z,99.90
2022-08-08T21:07:47.804Z,99.90
2022-08-08T21:10:17.716Z,99.90
2022-08-08T21:12:52.897Z,99.90
2022-08-08T21:16:06.232Z,99.90
2022-08-08T21:18:09.678Z,99.90
2022-08-08T21:20:39.614Z,99.90
2022-08-08T21:23:10.019Z,99.90
2022-08-08T21:25:40.291Z,99.90
2022-08-08T21:28:15.601Z,99.90
2022-08-08T21:30:45.305Z,99.90
2022-08-08T21:33:20.591Z,99.90
2022-08-08T21:36:14.784Z,99.90
2022-08-08T21:38:35.170Z,99.90
2022-08-08T21:41:02.214Z,99.90
2022-08-08T21:43:33.259Z,99.90
2022-08-08T21:48:05.107Z,99.90
2022-08-08T21:48:57.919Z,99.90
2022-08-08T21:54:34.462Z,99.90
2022-08-08T21:54:53.305Z,99.90
2022-08-08T21:57:07.176Z,99.90
2022-08-08T22:00:01.663Z,99.90
2022-08-08T22:02:23.463Z,99.90
2022-08-08T22:04:55.652Z,99.90
2022-08-08T22:07:34.732Z,99.90
2022-08-08T22:10:18.225Z,99.90
2022-08-08T22:13:17.896Z,99.90
2022-08-08T22:15:59.212Z,99.90
2022-08-08T22:18:30.614Z,99.90
2022-08-08T22:21:14.571Z,99.90
2022-08-08T22:23:51.651Z,99.90
2022-08-08T22:26:28.950Z,99.90
2022-08-08T22:29:14.853Z,99.90
2022-08-08T22:32:01.644Z,99.90
2022-08-08T22:34:39.191Z,99.90
2022-08-08T22:37:15.147Z,99.90
2022-08-08T22:40:00.011Z,99.90
2022-08-08T22:42:34.217Z,99.90
2022-08-08T22:45:12.904Z,99.90
2022-08-08T22:47:49.008Z,99.90
2022-08-08T22:50:26.151Z,99.90
2022-08-08T22:54:31.844Z,99.90
2022-08-08T22:55:58.628Z,99.90
2022-08-08T22:58:34.235Z,99.90
2022-08-08T23:02:03.002Z,99.90
2022-08-08T23:03:57.462Z,99.90
2022-08-08T23:06:27.342Z,99.90
2022-08-08T23:08:58.970Z,99.90
2022-08-08T23:12:17.970Z,99.90
2022-08-08T23:14:21.358Z,99.90
2022-08-08T23:16:57.578Z,99.90
2022-08-08T23:19:30.902Z,99.90
2022-08-08T23:22:04.574Z,99.90
2022-08-08T23:24:36.712Z,99.90
2022-08-08T23:27:10.273Z,99.90
2022-08-08T23:29:38.062Z,99.90
2022-08-08T23:32:06.360Z,99.90
2022-08-08T23:34:38.278Z,99.90
2022-08-08T23:37:05.467Z,99.90
2022-08-08T23:39:41.778Z,99.90
2022-08-08T23:42:16.562Z,99.90
2022-08-08T23:44:43.534Z,99.90
2022-08-08T23:49:02.533Z,99.90
2022-08-08T23:50:03.350Z,99.90
2022-08-08T23:52:33.393Z,99.90
2022-08-08T23:55:13.953Z,99.90
2022-08-08T23:57:52.514Z,99.90
